sensor_id;sensor_type;location;lat;lon;timestamp;P1;durP1;ratioP1;P2;durP2;ratioP2
75280;SDS011;63874;47.230;39.620;2023-02-28T00:00:25;15.75;;;8.45;;
75280;SDS011;63874;47.230;39.620;2023-02-28T00:02:51;16.27;;;9.15;;
75280;SDS011;63874;47.230;39.620;2023-02-28T00:05:19;20.50;;;10.82;;
75280;SDS011;63874;47.230;39.620;2023-02-28T00:07:47;18.02;;;10.15;;
75280;SDS011;63874;47.230;39.620;2023-02-28T00:10:15;21.98;;;10.30;;
75280;SDS011;63874;47.230;39.620;2023-02-28T00:12:49;16.58;;;9.63;;
75280;SDS011;63874;47.230;39.620;2023-02-28T00:15:16;22.42;;;12.30;;
75280;SDS011;63874;47.230;39.620;2023-02-28T00:17:43;22.08;;;10.55;;
75280;SDS011;63874;47.230;39.620;2023-02-28T00:20:10;21.25;;;11.25;;
75280;SDS011;63874;47.230;39.620;2023-02-28T00:22:41;18.80;;;11.43;;
75280;SDS011;63874;47.230;39.620;2023-02-28T00:25:09;23.67;;;11.57;;
75280;SDS011;63874;47.230;39.620;2023-02-28T00:27:36;21.60;;;11.02;;
75280;SDS011;63874;47.230;39.620;2023-02-28T00:30:03;22.70;;;12.25;;
75280;SDS011;63874;47.230;39.620;2023-02-28T00:32:31;19.20;;;11.70;;
75280;SDS011;63874;47.230;39.620;2023-02-28T00:34:57;20.70;;;11.55;;
75280;SDS011;63874;47.230;39.620;2023-02-28T00:37:23;20.25;;;11.35;;
75280;SDS011;63874;47.230;39.620;2023-02-28T00:39:49;22.10;;;12.90;;
75280;SDS011;63874;47.230;39.620;2023-02-28T00:42:15;22.55;;;11.68;;
75280;SDS011;63874;47.230;39.620;2023-02-28T00:44:41;20.63;;;11.63;;
75280;SDS011;63874;47.230;39.620;2023-02-28T00:47:07;17.27;;;9.90;;
75280;SDS011;63874;47.230;39.620;2023-02-28T00:49:32;25.77;;;13.38;;
75280;SDS011;63874;47.230;39.620;2023-02-28T00:51:58;25.95;;;14.18;;
75280;SDS011;63874;47.230;39.620;2023-02-28T00:54:25;26.23;;;14.35;;
75280;SDS011;63874;47.230;39.620;2023-02-28T00:56:51;20.13;;;11.20;;
75280;SDS011;63874;47.230;39.620;2023-02-28T00:59:17;26.77;;;13.32;;
75280;SDS011;63874;47.230;39.620;2023-02-28T01:01:44;25.10;;;12.60;;
75280;SDS011;63874;47.230;39.620;2023-02-28T01:04:11;15.48;;;8.43;;
75280;SDS011;63874;47.230;39.620;2023-02-28T01:06:38;22.20;;;12.50;;
75280;SDS011;63874;47.230;39.620;2023-02-28T01:09:04;24.88;;;12.27;;
75280;SDS011;63874;47.230;39.620;2023-02-28T01:11:31;22.02;;;12.30;;
75280;SDS011;63874;47.230;39.620;2023-02-28T01:13:58;26.17;;;14.85;;
75280;SDS011;63874;47.230;39.620;2023-02-28T01:16:24;25.70;;;11.35;;
75280;SDS011;63874;47.230;39.620;2023-02-28T01:18:50;26.65;;;14.18;;
75280;SDS011;63874;47.230;39.620;2023-02-28T01:21:17;22.45;;;13.38;;
75280;SDS011;63874;47.230;39.620;2023-02-28T01:23:44;22.67;;;13.38;;
75280;SDS011;63874;47.230;39.620;2023-02-28T01:26:12;24.52;;;14.98;;
75280;SDS011;63874;47.230;39.620;2023-02-28T01:28:47;26.08;;;13.75;;
75280;SDS011;63874;47.230;39.620;2023-02-28T01:31:14;21.60;;;12.55;;
75280;SDS011;63874;47.230;39.620;2023-02-28T01:33:40;23.33;;;12.48;;
75280;SDS011;63874;47.230;39.620;2023-02-28T01:36:08;21.92;;;13.32;;
75280;SDS011;63874;47.230;39.620;2023-02-28T01:38:39;27.38;;;16.13;;
75280;SDS011;63874;47.230;39.620;2023-02-28T01:41:06;24.55;;;14.93;;
75280;SDS011;63874;47.230;39.620;2023-02-28T01:43:51;23.75;;;12.23;;
75280;SDS011;63874;47.230;39.620;2023-02-28T01:46:30;23.00;;;10.52;;
75280;SDS011;63874;47.230;39.620;2023-02-28T01:51:43;20.88;;;12.40;;
75280;SDS011;63874;47.230;39.620;2023-02-28T01:54:16;28.42;;;13.25;;
75280;SDS011;63874;47.230;39.620;2023-02-28T01:56:48;22.73;;;11.93;;
75280;SDS011;63874;47.230;39.620;2023-02-28T01:59:40;27.73;;;13.27;;
75280;SDS011;63874;47.230;39.620;2023-02-28T02:02:12;19.75;;;10.55;;
75280;SDS011;63874;47.230;39.620;2023-02-28T02:04:41;28.27;;;13.45;;
75280;SDS011;63874;47.230;39.620;2023-02-28T02:07:22;24.80;;;12.77;;
75280;SDS011;63874;47.230;39.620;2023-02-28T02:35:23;23.88;;;10.70;;
75280;SDS011;63874;47.230;39.620;2023-02-28T02:41:05;17.15;;;6.18;;
75280;SDS011;63874;47.230;39.620;2023-02-28T02:46:31;16.27;;;7.30;;
75280;SDS011;63874;47.230;39.620;2023-02-28T02:49:00;17.92;;;8.57;;
75280;SDS011;63874;47.230;39.620;2023-02-28T02:51:30;15.27;;;5.88;;
75280;SDS011;63874;47.230;39.620;2023-02-28T02:56:33;19.98;;;8.38;;
75280;SDS011;63874;47.230;39.620;2023-02-28T02:59:02;18.77;;;8.18;;
75280;SDS011;63874;47.230;39.620;2023-02-28T03:01:31;18.75;;;7.80;;
75280;SDS011;63874;47.230;39.620;2023-02-28T03:04:01;15.57;;;7.07;;
75280;SDS011;63874;47.230;39.620;2023-02-28T03:06:31;21.38;;;9.02;;
75280;SDS011;63874;47.230;39.620;2023-02-28T03:08:57;21.67;;;9.80;;
75280;SDS011;63874;47.230;39.620;2023-02-28T03:11:23;19.02;;;7.70;;
75280;SDS011;63874;47.230;39.620;2023-02-28T03:16:25;19.92;;;9.55;;
75280;SDS011;63874;47.230;39.620;2023-02-28T03:18:56;21.00;;;10.10;;
75280;SDS011;63874;47.230;39.620;2023-02-28T03:21:55;15.55;;;6.18;;
75280;SDS011;63874;47.230;39.620;2023-02-28T03:27:11;21.67;;;8.45;;
75280;SDS011;63874;47.230;39.620;2023-02-28T03:30:03;16.55;;;6.68;;
75280;SDS011;63874;47.230;39.620;2023-02-28T03:32:35;19.55;;;8.02;;
75280;SDS011;63874;47.230;39.620;2023-02-28T03:35:12;19.30;;;7.10;;
75280;SDS011;63874;47.230;39.620;2023-02-28T03:37:48;20.30;;;6.95;;
75280;SDS011;63874;47.230;39.620;2023-02-28T03:40:22;18.88;;;6.28;;
75280;SDS011;63874;47.230;39.620;2023-02-28T03:42:54;17.35;;;6.82;;
75280;SDS011;63874;47.230;39.620;2023-02-28T03:45:28;24.80;;;8.48;;
75280;SDS011;63874;47.230;39.620;2023-02-28T03:50:43;17.70;;;6.95;;
75280;SDS011;63874;47.230;39.620;2023-02-28T03:53:14;20.63;;;7.15;;
75280;SDS011;63874;47.230;39.620;2023-02-28T03:55:45;18.60;;;7.05;;
75280;SDS011;63874;47.230;39.620;2023-02-28T03:58:37;18.50;;;6.80;;
75280;SDS011;63874;47.230;39.620;2023-02-28T04:01:08;18.90;;;6.57;;
75280;SDS011;63874;47.230;39.620;2023-02-28T04:03:38;17.48;;;7.45;;
75280;SDS011;63874;47.230;39.620;2023-02-28T04:06:05;20.25;;;7.78;;
75280;SDS011;63874;47.230;39.620;2023-02-28T04:08:39;15.48;;;6.30;;
75280;SDS011;63874;47.230;39.620;2023-02-28T04:11:12;21.77;;;9.18;;
75280;SDS011;63874;47.230;39.620;2023-02-28T04:13:43;18.20;;;6.55;;
75280;SDS011;63874;47.230;39.620;2023-02-28T04:16:09;21.98;;;9.05;;
75280;SDS011;63874;47.230;39.620;2023-02-28T04:18:40;16.13;;;6.57;;
75280;SDS011;63874;47.230;39.620;2023-02-28T04:21:09;17.52;;;6.43;;
75280;SDS011;63874;47.230;39.620;2023-02-28T04:23:35;19.00;;;7.10;;
75280;SDS011;63874;47.230;39.620;2023-02-28T04:26:01;15.68;;;5.68;;
75280;SDS011;63874;47.230;39.620;2023-02-28T04:28:28;18.55;;;6.50;;
75280;SDS011;63874;47.230;39.620;2023-02-28T04:31:02;17.95;;;8.57;;
75280;SDS011;63874;47.230;39.620;2023-02-28T04:33:29;12.75;;;4.45;;
75280;SDS011;63874;47.230;39.620;2023-02-28T04:36:02;13.38;;;5.85;;
75280;SDS011;63874;47.230;39.620;2023-02-28T04:38:37;22.15;;;8.20;;
75280;SDS011;63874;47.230;39.620;2023-02-28T04:41:04;16.67;;;6.88;;
75280;SDS011;63874;47.230;39.620;2023-02-28T04:43:31;22.45;;;8.43;;
75280;SDS011;63874;47.230;39.620;2023-02-28T04:45:57;17.08;;;8.02;;
75280;SDS011;63874;47.230;39.620;2023-02-28T04:48:27;22.88;;;8.63;;
75280;SDS011;63874;47.230;39.620;2023-02-28T04:50:55;20.17;;;8.27;;
75280;SDS011;63874;47.230;39.620;2023-02-28T04:53:25;17.40;;;6.55;;
75280;SDS011;63874;47.230;39.620;2023-02-28T04:55:51;16.90;;;6.90;;
75280;SDS011;63874;47.230;39.620;2023-02-28T04:58:16;24.13;;;7.07;;
75280;SDS011;63874;47.230;39.620;2023-02-28T05:00:42;18.73;;;6.60;;
75280;SDS011;63874;47.230;39.620;2023-02-28T05:03:08;17.75;;;6.45;;
75280;SDS011;63874;47.230;39.620;2023-02-28T05:05:35;20.98;;;7.38;;
75280;SDS011;63874;47.230;39.620;2023-02-28T05:08:01;18.85;;;7.45;;
75280;SDS011;63874;47.230;39.620;2023-02-28T05:10:27;16.95;;;7.85;;
75280;SDS011;63874;47.230;39.620;2023-02-28T05:12:53;15.38;;;6.25;;
75280;SDS011;63874;47.230;39.620;2023-02-28T05:15:19;14.65;;;5.93;;
75280;SDS011;63874;47.230;39.620;2023-02-28T05:17:45;16.25;;;7.38;;
75280;SDS011;63874;47.230;39.620;2023-02-28T05:20:12;23.40;;;8.43;;
75280;SDS011;63874;47.230;39.620;2023-02-28T05:22:41;19.33;;;7.35;;
75280;SDS011;63874;47.230;39.620;2023-02-28T05:25:08;17.50;;;8.50;;
75280;SDS011;63874;47.230;39.620;2023-02-28T05:27:40;15.65;;;5.78;;
75280;SDS011;63874;47.230;39.620;2023-02-28T05:30:06;12.85;;;5.32;;
75280;SDS011;63874;47.230;39.620;2023-02-28T05:32:38;18.20;;;7.03;;
75280;SDS011;63874;47.230;39.620;2023-02-28T05:35:08;18.38;;;6.82;;
75280;SDS011;63874;47.230;39.620;2023-02-28T05:37:38;23.92;;;7.43;;
75280;SDS011;63874;47.230;39.620;2023-02-28T05:40:10;17.63;;;7.45;;
75280;SDS011;63874;47.230;39.620;2023-02-28T05:42:37;16.52;;;6.85;;
75280;SDS011;63874;47.230;39.620;2023-02-28T05:45:03;18.80;;;8.25;;
75280;SDS011;63874;47.230;39.620;2023-02-28T05:47:32;17.52;;;6.53;;
75280;SDS011;63874;47.230;39.620;2023-02-28T05:49:58;16.67;;;7.43;;
75280;SDS011;63874;47.230;39.620;2023-02-28T05:52:24;20.10;;;6.82;;
75280;SDS011;63874;47.230;39.620;2023-02-28T05:54:50;20.35;;;7.45;;
75280;SDS011;63874;47.230;39.620;2023-02-28T05:57:19;23.60;;;8.65;;
75280;SDS011;63874;47.230;39.620;2023-02-28T05:59:45;20.65;;;8.38;;
75280;SDS011;63874;47.230;39.620;2023-02-28T06:02:12;23.13;;;7.95;;
75280;SDS011;63874;47.230;39.620;2023-02-28T06:04:40;18.67;;;7.05;;
75280;SDS011;63874;47.230;39.620;2023-02-28T06:07:07;15.88;;;7.43;;
75280;SDS011;63874;47.230;39.620;2023-02-28T06:09:33;16.73;;;7.43;;
75280;SDS011;63874;47.230;39.620;2023-02-28T06:12:00;15.15;;;5.55;;
75280;SDS011;63874;47.230;39.620;2023-02-28T06:14:29;15.38;;;6.80;;
75280;SDS011;63874;47.230;39.620;2023-02-28T06:16:56;20.35;;;7.43;;
75280;SDS011;63874;47.230;39.620;2023-02-28T06:19:32;21.20;;;8.77;;
75280;SDS011;63874;47.230;39.620;2023-02-28T06:21:58;21.40;;;8.95;;
75280;SDS011;63874;47.230;39.620;2023-02-28T06:24:25;22.60;;;9.73;;
75280;SDS011;63874;47.230;39.620;2023-02-28T06:26:53;21.30;;;8.88;;
75280;SDS011;63874;47.230;39.620;2023-02-28T06:29:19;24.13;;;7.85;;
75280;SDS011;63874;47.230;39.620;2023-02-28T06:31:45;21.88;;;8.63;;
75280;SDS011;63874;47.230;39.620;2023-02-28T06:34:12;19.25;;;7.97;;
75280;SDS011;63874;47.230;39.620;2023-02-28T06:36:39;22.27;;;8.43;;
75280;SDS011;63874;47.230;39.620;2023-02-28T06:39:06;12.55;;;5.88;;
75280;SDS011;63874;47.230;39.620;2023-02-28T06:41:33;14.38;;;6.10;;
75280;SDS011;63874;47.230;39.620;2023-02-28T06:44:04;21.30;;;9.13;;
75280;SDS011;63874;47.230;39.620;2023-02-28T06:46:31;20.90;;;8.85;;
75280;SDS011;63874;47.230;39.620;2023-02-28T06:48:57;18.65;;;7.25;;
75280;SDS011;63874;47.230;39.620;2023-02-28T06:51:23;19.63;;;9.23;;
75280;SDS011;63874;47.230;39.620;2023-02-28T06:53:49;21.42;;;6.47;;
75280;SDS011;63874;47.230;39.620;2023-02-28T06:56:16;15.13;;;6.60;;
75280;SDS011;63874;47.230;39.620;2023-02-28T06:58:49;24.98;;;8.35;;
75280;SDS011;63874;47.230;39.620;2023-02-28T07:01:18;22.58;;;8.73;;
75280;SDS011;63874;47.230;39.620;2023-02-28T07:03:45;21.30;;;8.27;;
75280;SDS011;63874;47.230;39.620;2023-02-28T07:06:12;20.55;;;6.03;;
75280;SDS011;63874;47.230;39.620;2023-02-28T07:08:38;20.23;;;6.78;;
75280;SDS011;63874;47.230;39.620;2023-02-28T07:11:06;12.40;;;5.95;;
75280;SDS011;63874;47.230;39.620;2023-02-28T07:13:32;18.42;;;7.10;;
75280;SDS011;63874;47.230;39.620;2023-02-28T07:15:59;20.60;;;7.88;;
75280;SDS011;63874;47.230;39.620;2023-02-28T07:18:28;20.58;;;8.32;;
75280;SDS011;63874;47.230;39.620;2023-02-28T07:20:54;20.48;;;8.30;;
75280;SDS011;63874;47.230;39.620;2023-02-28T07:23:20;19.90;;;8.80;;
75280;SDS011;63874;47.230;39.620;2023-02-28T07:25:47;20.40;;;8.13;;
75280;SDS011;63874;47.230;39.620;2023-02-28T07:28:14;21.25;;;8.48;;
75280;SDS011;63874;47.230;39.620;2023-02-28T07:30:40;18.33;;;7.10;;
75280;SDS011;63874;47.230;39.620;2023-02-28T07:33:06;21.02;;;9.45;;
75280;SDS011;63874;47.230;39.620;2023-02-28T07:35:32;23.00;;;11.88;;
75280;SDS011;63874;47.230;39.620;2023-02-28T07:37:59;22.48;;;8.93;;
75280;SDS011;63874;47.230;39.620;2023-02-28T07:40:25;21.90;;;8.73;;
75280;SDS011;63874;47.230;39.620;2023-02-28T07:42:51;24.67;;;8.85;;
75280;SDS011;63874;47.230;39.620;2023-02-28T07:45:17;32.58;;;10.70;;
75280;SDS011;63874;47.230;39.620;2023-02-28T07:47:44;25.75;;;8.25;;
75280;SDS011;63874;47.230;39.620;2023-02-28T07:50:12;23.40;;;9.75;;
75280;SDS011;63874;47.230;39.620;2023-02-28T07:52:40;21.38;;;8.38;;
75280;SDS011;63874;47.230;39.620;2023-02-28T07:55:06;23.38;;;9.23;;
75280;SDS011;63874;47.230;39.620;2023-02-28T07:57:35;25.33;;;9.52;;
75280;SDS011;63874;47.230;39.620;2023-02-28T08:00:07;25.67;;;9.90;;
75280;SDS011;63874;47.230;39.620;2023-02-28T08:02:39;26.17;;;11.45;;
75280;SDS011;63874;47.230;39.620;2023-02-28T08:05:06;26.23;;;11.52;;
75280;SDS011;63874;47.230;39.620;2023-02-28T08:07:32;26.50;;;10.45;;
75280;SDS011;63874;47.230;39.620;2023-02-28T08:09:59;25.92;;;11.02;;
75280;SDS011;63874;47.230;39.620;2023-02-28T08:12:25;21.17;;;8.30;;
75280;SDS011;63874;47.230;39.620;2023-02-28T08:14:51;25.33;;;9.95;;
75280;SDS011;63874;47.230;39.620;2023-02-28T08:17:17;22.27;;;10.15;;
75280;SDS011;63874;47.230;39.620;2023-02-28T08:19:46;21.17;;;9.57;;
75280;SDS011;63874;47.230;39.620;2023-02-28T08:22:12;29.83;;;12.45;;
75280;SDS011;63874;47.230;39.620;2023-02-28T08:24:38;32.90;;;11.20;;
75280;SDS011;63874;47.230;39.620;2023-02-28T08:27:06;28.58;;;12.63;;
75280;SDS011;63874;47.230;39.620;2023-02-28T08:29:31;23.95;;;11.80;;
75280;SDS011;63874;47.230;39.620;2023-02-28T08:31:57;29.38;;;13.10;;
75280;SDS011;63874;47.230;39.620;2023-02-28T08:34:24;38.38;;;14.77;;
75280;SDS011;63874;47.230;39.620;2023-02-28T08:36:49;31.17;;;12.45;;
75280;SDS011;63874;47.230;39.620;2023-02-28T08:39:15;30.08;;;13.77;;
75280;SDS011;63874;47.230;39.620;2023-02-28T08:41:42;28.05;;;13.15;;
75280;SDS011;63874;47.230;39.620;2023-02-28T08:44:09;31.38;;;13.85;;
75280;SDS011;63874;47.230;39.620;2023-02-28T08:46:35;19.10;;;9.65;;
75280;SDS011;63874;47.230;39.620;2023-02-28T08:49:01;28.77;;;12.38;;
75280;SDS011;63874;47.230;39.620;2023-02-28T08:51:40;35.40;;;13.57;;
75280;SDS011;63874;47.230;39.620;2023-02-28T08:54:05;30.17;;;11.98;;
75280;SDS011;63874;47.230;39.620;2023-02-28T08:56:32;33.13;;;15.80;;
75280;SDS011;63874;47.230;39.620;2023-02-28T08:58:58;39.38;;;16.88;;
75280;SDS011;63874;47.230;39.620;2023-02-28T09:01:25;25.25;;;9.90;;
75280;SDS011;63874;47.230;39.620;2023-02-28T09:03:53;23.08;;;9.52;;
75280;SDS011;63874;47.230;39.620;2023-02-28T09:06:21;28.67;;;11.88;;
75280;SDS011;63874;47.230;39.620;2023-02-28T09:08:48;27.83;;;12.50;;
75280;SDS011;63874;47.230;39.620;2023-02-28T09:11:16;24.73;;;11.10;;
75280;SDS011;63874;47.230;39.620;2023-02-28T09:13:44;24.35;;;10.23;;
75280;SDS011;63874;47.230;39.620;2023-02-28T09:16:11;25.23;;;10.98;;
75280;SDS011;63874;47.230;39.620;2023-02-28T09:18:40;33.90;;;10.45;;
75280;SDS011;63874;47.230;39.620;2023-02-28T09:21:06;28.77;;;11.88;;
75280;SDS011;63874;47.230;39.620;2023-02-28T09:23:34;29.17;;;10.75;;
75280;SDS011;63874;47.230;39.620;2023-02-28T09:26:03;28.33;;;11.75;;
75280;SDS011;63874;47.230;39.620;2023-02-28T09:28:29;25.38;;;12.88;;
75280;SDS011;63874;47.230;39.620;2023-02-28T09:30:56;22.42;;;9.90;;
75280;SDS011;63874;47.230;39.620;2023-02-28T09:33:30;25.33;;;9.80;;
75280;SDS011;63874;47.230;39.620;2023-02-28T09:35:59;33.22;;;13.23;;
75280;SDS011;63874;47.230;39.620;2023-02-28T09:38:27;32.05;;;12.73;;
75280;SDS011;63874;47.230;39.620;2023-02-28T09:40:55;27.77;;;13.15;;
75280;SDS011;63874;47.230;39.620;2023-02-28T09:43:28;31.55;;;12.30;;
75280;SDS011;63874;47.230;39.620;2023-02-28T09:48:48;32.95;;;13.60;;
75280;SDS011;63874;47.230;39.620;2023-02-28T09:53:58;38.40;;;16.63;;
75280;SDS011;63874;47.230;39.620;2023-02-28T09:56:25;44.63;;;19.05;;
75280;SDS011;63874;47.230;39.620;2023-02-28T09:58:59;43.55;;;19.52;;
75280;SDS011;63874;47.230;39.620;2023-02-28T10:01:43;27.20;;;9.48;;
75280;SDS011;63874;47.230;39.620;2023-02-28T10:07:37;40.08;;;15.13;;
75280;SDS011;63874;47.230;39.620;2023-02-28T10:10:21;42.25;;;14.57;;
75280;SDS011;63874;47.230;39.620;2023-02-28T10:12:52;50.75;;;19.25;;
75280;SDS011;63874;47.230;39.620;2023-02-28T10:15:21;40.97;;;16.55;;
75280;SDS011;63874;47.230;39.620;2023-02-28T10:17:54;39.25;;;13.63;;
75280;SDS011;63874;47.230;39.620;2023-02-28T10:20:23;50.90;;;21.95;;
75280;SDS011;63874;47.230;39.620;2023-02-28T10:25:35;22.00;;;9.05;;
75280;SDS011;63874;47.230;39.620;2023-02-28T10:28:09;41.47;;;15.02;;
75280;SDS011;63874;47.230;39.620;2023-02-28T10:30:37;39.55;;;14.38;;
75280;SDS011;63874;47.230;39.620;2023-02-28T10:33:11;43.20;;;15.13;;
75280;SDS011;63874;47.230;39.620;2023-02-28T10:36:12;37.15;;;13.90;;
75280;SDS011;63874;47.230;39.620;2023-02-28T10:38:42;34.83;;;13.90;;
75280;SDS011;63874;47.230;39.620;2023-02-28T10:41:09;42.63;;;16.38;;
75280;SDS011;63874;47.230;39.620;2023-02-28T10:43:38;33.50;;;12.48;;
75280;SDS011;63874;47.230;39.620;2023-02-28T10:51:24;33.70;;;13.70;;
75280;SDS011;63874;47.230;39.620;2023-02-28T10:53:54;30.90;;;11.93;;
75280;SDS011;63874;47.230;39.620;2023-02-28T10:56:21;33.28;;;12.48;;
75280;SDS011;63874;47.230;39.620;2023-02-28T10:59:01;24.52;;;8.32;;
75280;SDS011;63874;47.230;39.620;2023-02-28T11:04:31;31.92;;;11.55;;
75280;SDS011;63874;47.230;39.620;2023-02-28T11:07:04;42.05;;;15.18;;
75280;SDS011;63874;47.230;39.620;2023-02-28T11:09:33;44.53;;;14.73;;
75280;SDS011;63874;47.230;39.620;2023-02-28T11:14:52;36.65;;;13.00;;
75280;SDS011;63874;47.230;39.620;2023-02-28T11:17:27;36.28;;;12.45;;
75280;SDS011;63874;47.230;39.620;2023-02-28T11:19:55;35.33;;;15.07;;
75280;SDS011;63874;47.230;39.620;2023-02-28T11:22:27;28.88;;;10.63;;
75280;SDS011;63874;47.230;39.620;2023-02-28T11:24:59;32.83;;;12.65;;
75280;SDS011;63874;47.230;39.620;2023-02-28T11:29:59;45.70;;;14.85;;
75280;SDS011;63874;47.230;39.620;2023-02-28T11:32:29;43.47;;;13.23;;
75280;SDS011;63874;47.230;39.620;2023-02-28T11:35:03;31.20;;;9.57;;
75280;SDS011;63874;47.230;39.620;2023-02-28T11:37:37;25.08;;;9.40;;
75280;SDS011;63874;47.230;39.620;2023-02-28T11:40:17;37.72;;;13.95;;
75280;SDS011;63874;47.230;39.620;2023-02-28T11:56:41;32.05;;;11.57;;
75280;SDS011;63874;47.230;39.620;2023-02-28T11:59:34;23.58;;;9.43;;
75280;SDS011;63874;47.230;39.620;2023-02-28T12:02:23;28.73;;;10.32;;
75280;SDS011;63874;47.230;39.620;2023-02-28T12:16:37;27.63;;;11.73;;
75280;SDS011;63874;47.230;39.620;2023-02-28T12:19:20;30.83;;;12.13;;
75280;SDS011;63874;47.230;39.620;2023-02-28T12:22:04;18.80;;;6.07;;
75280;SDS011;63874;47.230;39.620;2023-02-28T12:27:16;30.23;;;10.18;;
75280;SDS011;63874;47.230;39.620;2023-02-28T12:32:40;26.02;;;9.43;;
75280;SDS011;63874;47.230;39.620;2023-02-28T12:43:42;26.67;;;9.93;;
75280;SDS011;63874;47.230;39.620;2023-02-28T12:46:25;26.48;;;10.55;;
75280;SDS011;63874;47.230;39.620;2023-02-28T12:48:59;19.92;;;7.40;;
75280;SDS011;63874;47.230;39.620;2023-02-28T12:51:29;14.50;;;6.38;;
75280;SDS011;63874;47.230;39.620;2023-02-28T12:54:04;15.10;;;6.57;;
75280;SDS011;63874;47.230;39.620;2023-02-28T12:56:44;26.63;;;12.02;;
75280;SDS011;63874;47.230;39.620;2023-02-28T13:02:25;30.10;;;12.35;;
75280;SDS011;63874;47.230;39.620;2023-02-28T13:10:11;17.98;;;6.68;;
75280;SDS011;63874;47.230;39.620;2023-02-28T13:12:47;12.02;;;5.25;;
75280;SDS011;63874;47.230;39.620;2023-02-28T13:15:24;23.17;;;7.43;;
75280;SDS011;63874;47.230;39.620;2023-02-28T13:17:57;20.15;;;5.68;;
75280;SDS011;63874;47.230;39.620;2023-02-28T13:20:37;25.50;;;9.88;;
75280;SDS011;63874;47.230;39.620;2023-02-28T13:23:56;21.23;;;7.43;;
75280;SDS011;63874;47.230;39.620;2023-02-28T13:26:17;25.83;;;9.93;;
75280;SDS011;63874;47.230;39.620;2023-02-28T13:28:57;12.23;;;4.22;;
75280;SDS011;63874;47.230;39.620;2023-02-28T13:31:25;17.42;;;6.82;;
75280;SDS011;63874;47.230;39.620;2023-02-28T13:42:05;13.80;;;6.22;;
75280;SDS011;63874;47.230;39.620;2023-02-28T13:47:54;15.85;;;7.85;;
75280;SDS011;63874;47.230;39.620;2023-02-28T13:53:22;17.33;;;6.95;;
75280;SDS011;63874;47.230;39.620;2023-02-28T14:06:39;18.67;;;7.75;;
75280;SDS011;63874;47.230;39.620;2023-02-28T14:10:03;20.70;;;6.65;;
75280;SDS011;63874;47.230;39.620;2023-02-28T14:18:02;16.70;;;5.15;;
75280;SDS011;63874;47.230;39.620;2023-02-28T14:20:36;22.92;;;8.75;;
75280;SDS011;63874;47.230;39.620;2023-02-28T14:26:25;14.70;;;6.82;;
75280;SDS011;63874;47.230;39.620;2023-02-28T14:32:01;17.20;;;7.93;;
75280;SDS011;63874;47.230;39.620;2023-02-28T14:37:05;21.27;;;9.68;;
75280;SDS011;63874;47.230;39.620;2023-02-28T14:39:33;15.23;;;6.82;;
75280;SDS011;63874;47.230;39.620;2023-02-28T14:42:00;12.52;;;6.53;;
75280;SDS011;63874;47.230;39.620;2023-02-28T14:44:30;14.50;;;6.55;;
75280;SDS011;63874;47.230;39.620;2023-02-28T14:46:57;11.90;;;6.28;;
75280;SDS011;63874;47.230;39.620;2023-02-28T14:54:56;14.98;;;7.25;;
75280;SDS011;63874;47.230;39.620;2023-02-28T14:57:29;19.65;;;8.63;;
75280;SDS011;63874;47.230;39.620;2023-02-28T15:00:46;15.15;;;6.30;;
75280;SDS011;63874;47.230;39.620;2023-02-28T15:02:51;16.20;;;7.40;;
75280;SDS011;63874;47.230;39.620;2023-02-28T15:05:31;17.35;;;7.63;;
75280;SDS011;63874;47.230;39.620;2023-02-28T15:08:31;10.05;;;3.97;;
75280;SDS011;63874;47.230;39.620;2023-02-28T15:10:53;15.93;;;5.85;;
75280;SDS011;63874;47.230;39.620;2023-02-28T15:13:50;12.70;;;3.75;;
75280;SDS011;63874;47.230;39.620;2023-02-28T15:16:22;16.23;;;7.00;;
75280;SDS011;63874;47.230;39.620;2023-02-28T15:21:21;15.80;;;8.45;;
75280;SDS011;63874;47.230;39.620;2023-02-28T15:24:02;15.35;;;7.63;;
75280;SDS011;63874;47.230;39.620;2023-02-28T15:26:38;15.48;;;6.75;;
75280;SDS011;63874;47.230;39.620;2023-02-28T15:29:14;19.38;;;9.07;;
75280;SDS011;63874;47.230;39.620;2023-02-28T15:31:44;16.08;;;7.88;;
75280;SDS011;63874;47.230;39.620;2023-02-28T15:34:23;20.20;;;10.43;;
75280;SDS011;63874;47.230;39.620;2023-02-28T15:36:59;19.52;;;9.48;;
75280;SDS011;63874;47.230;39.620;2023-02-28T15:39:27;18.50;;;6.40;;
75280;SDS011;63874;47.230;39.620;2023-02-28T15:42:27;17.42;;;7.25;;
75280;SDS011;63874;47.230;39.620;2023-02-28T15:44:47;19.30;;;9.15;;
75280;SDS011;63874;47.230;39.620;2023-02-28T15:47:21;16.98;;;8.07;;
75280;SDS011;63874;47.230;39.620;2023-02-28T15:50:02;20.27;;;8.52;;
75280;SDS011;63874;47.230;39.620;2023-02-28T15:52:44;15.63;;;6.60;;
75280;SDS011;63874;47.230;39.620;2023-02-28T15:55:15;17.88;;;8.73;;
75280;SDS011;63874;47.230;39.620;2023-02-28T15:57:51;14.60;;;5.97;;
75280;SDS011;63874;47.230;39.620;2023-02-28T16:00:23;8.15;;;3.55;;
75280;SDS011;63874;47.230;39.620;2023-02-28T16:02:50;16.70;;;7.47;;
75280;SDS011;63874;47.230;39.620;2023-02-28T16:05:24;15.25;;;8.02;;
75280;SDS011;63874;47.230;39.620;2023-02-28T16:08:00;22.77;;;8.23;;
75280;SDS011;63874;47.230;39.620;2023-02-28T16:10:36;14.68;;;7.03;;
75280;SDS011;63874;47.230;39.620;2023-02-28T16:13:02;20.17;;;8.10;;
75280;SDS011;63874;47.230;39.620;2023-02-28T16:15:29;19.33;;;9.18;;
75280;SDS011;63874;47.230;39.620;2023-02-28T16:18:00;16.50;;;6.55;;
75280;SDS011;63874;47.230;39.620;2023-02-28T16:20:27;15.55;;;5.45;;
75280;SDS011;63874;47.230;39.620;2023-02-28T16:22:55;12.52;;;5.72;;
75280;SDS011;63874;47.230;39.620;2023-02-28T16:25:35;16.33;;;6.95;;
75280;SDS011;63874;47.230;39.620;2023-02-28T16:28:11;14.02;;;5.13;;
75280;SDS011;63874;47.230;39.620;2023-02-28T16:30:43;16.70;;;7.53;;
75280;SDS011;63874;47.230;39.620;2023-02-28T16:33:09;15.73;;;6.15;;
75280;SDS011;63874;47.230;39.620;2023-02-28T16:35:35;18.05;;;7.13;;
75280;SDS011;63874;47.230;39.620;2023-02-28T16:38:00;15.23;;;6.93;;
75280;SDS011;63874;47.230;39.620;2023-02-28T16:40:26;20.33;;;9.00;;
75280;SDS011;63874;47.230;39.620;2023-02-28T16:42:58;20.85;;;7.38;;
75280;SDS011;63874;47.230;39.620;2023-02-28T16:45:31;22.70;;;8.75;;
75280;SDS011;63874;47.230;39.620;2023-02-28T16:48:13;15.15;;;6.53;;
75280;SDS011;63874;47.230;39.620;2023-02-28T16:50:41;16.42;;;7.28;;
75280;SDS011;63874;47.230;39.620;2023-02-28T16:53:09;13.13;;;5.88;;
75280;SDS011;63874;47.230;39.620;2023-02-28T16:55:35;20.70;;;7.13;;
75280;SDS011;63874;47.230;39.620;2023-02-28T16:58:10;14.52;;;5.47;;
75280;SDS011;63874;47.230;39.620;2023-02-28T17:00:39;15.52;;;6.95;;
75280;SDS011;63874;47.230;39.620;2023-02-28T17:03:08;16.27;;;6.45;;
75280;SDS011;63874;47.230;39.620;2023-02-28T17:05:44;12.48;;;5.38;;
75280;SDS011;63874;47.230;39.620;2023-02-28T17:08:10;13.43;;;6.47;;
75280;SDS011;63874;47.230;39.620;2023-02-28T17:10:36;12.90;;;5.60;;
75280;SDS011;63874;47.230;39.620;2023-02-28T17:13:02;15.52;;;8.23;;
75280;SDS011;63874;47.230;39.620;2023-02-28T17:15:28;16.33;;;7.60;;
75280;SDS011;63874;47.230;39.620;2023-02-28T17:17:56;15.32;;;7.05;;
75280;SDS011;63874;47.230;39.620;2023-02-28T17:20:22;22.55;;;10.93;;